Khok Kloi, Thailand
Current Conditions -  °F | °C
As of 2:30 PM on Friday 19 Dec 2014 (Local Time) from VTSP Reporting Station
Broken Clouds Broken Clouds  
Wind Chill: 88°   Ceiling: 30000
Heat Index: 94°   Visibility: 5mi
Dew Point: 72°   Wind: 12mph
Humidity: 58%   Direction: 80°E
Pressure: 29.83"   Gusts: NA
Location:  8.28°N, 98.31°E
Report Text: VTSP 190730Z 08010KT 8000 FEW016 BKN300 31/22 Q1010 A2983NOSIG
Loading
Personal Weather Stations






























Interactive Weather Map New forecast layout! Learn more

10-Day Weather Forecast

Advertisements
Track Severe Weather on mobile